createdAt,value
2022-09-20T00:01:12.083Z,12.15
2022-09-20T00:03:40.848Z,11.92
2022-09-20T00:06:09.259Z,11.87
2022-09-20T00:08:36.422Z,11.87
2022-09-20T00:11:04.208Z,11.96
2022-09-20T00:13:31.443Z,11.89
2022-09-20T00:15:59.019Z,11.94
2022-09-20T00:18:26.923Z,11.92
2022-09-20T00:20:54.043Z,11.89
2022-09-20T00:23:20.908Z,11.78
2022-09-20T00:25:55.341Z,11.95
2022-09-20T00:28:22.069Z,11.81
2022-09-20T00:30:49.255Z,11.75
2022-09-20T00:33:16.037Z,11.76
2022-09-20T00:35:45.835Z,11.74
2022-09-20T00:38:16.497Z,11.74
2022-09-20T00:40:44.750Z,11.78
2022-09-20T00:43:16.461Z,11.82
2022-09-20T00:45:47.106Z,11.78
2022-09-20T00:48:18.782Z,11.74
2022-09-20T00:50:58.032Z,11.73
2022-09-20T00:53:29.721Z,11.67
2022-09-20T00:55:58.709Z,11.51
2022-09-20T00:58:27.848Z,11.54
2022-09-20T01:00:55.889Z,11.50
2022-09-20T01:03:25.255Z,11.58
2022-09-20T01:05:53.604Z,11.57
2022-09-20T01:08:21.062Z,11.74
2022-09-20T01:10:48.496Z,11.81
2022-09-20T01:13:15.207Z,11.63
2022-09-20T01:15:42.589Z,11.57
2022-09-20T01:18:09.730Z,11.60
2022-09-20T01:20:42.154Z,11.57
2022-09-20T01:23:14.966Z,11.44
2022-09-20T01:26:04.875Z,11.75
2022-09-20T01:28:31.753Z,11.60
2022-09-20T01:31:09.314Z,11.52
2022-09-20T01:33:49.932Z,11.53
2022-09-20T01:36:23.457Z,11.47
2022-09-20T01:38:59.284Z,11.51
2022-09-20T01:41:35.429Z,11.59
2022-09-20T01:44:11.824Z,11.58
2022-09-20T01:46:38.698Z,11.60
2022-09-20T01:49:13.129Z,11.63
2022-09-20T01:52:03.060Z,11.65
2022-09-20T01:54:42.000Z,11.65
2022-09-20T01:57:27.291Z,11.61
2022-09-20T02:00:07.236Z,11.50
2022-09-20T02:03:05.413Z,11.65
2022-09-20T02:05:37.727Z,11.63
2022-09-20T02:08:22.373Z,11.54
2022-09-20T02:10:55.025Z,11.70
2022-09-20T02:13:36.266Z,11.66
2022-09-20T02:16:21.750Z,11.55
2022-09-20T02:19:07.874Z,11.53
2022-09-20T02:22:39.356Z,11.56
2022-09-20T02:25:05.936Z,11.60
2022-09-20T02:27:53.910Z,11.49
2022-09-20T02:30:35.725Z,11.55
2022-09-20T02:33:05.432Z,11.48
2022-09-20T02:35:41.750Z,11.58
2022-09-20T02:38:18.169Z,11.64
2022-09-20T02:41:04.012Z,11.60
2022-09-20T02:43:33.673Z,11.45
2022-09-20T02:46:19.317Z,11.52
2022-09-20T02:48:51.779Z,11.66
2022-09-20T02:51:41.808Z,11.64
2022-09-20T02:54:26.801Z,11.66
2022-09-20T02:57:18.247Z,11.65
2022-09-20T03:00:00.758Z,11.63
2022-09-20T03:02:39.841Z,11.65
2022-09-20T03:05:14.437Z,11.64
2022-09-20T03:07:41.187Z,11.65
2022-09-20T03:10:26.223Z,11.61
2022-09-20T03:13:17.768Z,11.60
2022-09-20T03:15:47.115Z,11.68
2022-09-20T03:18:19.746Z,11.63
2022-09-20T03:21:06.689Z,11.62
2022-09-20T03:24:10.986Z,11.57
2022-09-20T03:26:42.341Z,11.54
2022-09-20T03:29:21.066Z,11.52
2022-09-20T03:32:22.308Z,11.30
2022-09-20T03:34:53.988Z,11.55
2022-09-20T03:37:42.063Z,11.40
2022-09-20T03:41:01.701Z,11.43
2022-09-20T03:43:34.277Z,11.50
2022-09-20T03:46:26.681Z,11.52
2022-09-20T03:49:21.185Z,11.56
2022-09-20T03:52:01.172Z,11.49
2022-09-20T03:54:53.655Z,11.35
2022-09-20T03:57:35.450Z,11.46
2022-09-20T04:00:20.852Z,11.52
2022-09-20T04:03:12.623Z,11.54
2022-09-20T04:05:39.304Z,11.49
2022-09-20T04:08:08.724Z,11.50
2022-09-20T04:10:59.808Z,11.50
2022-09-20T04:13:40.933Z,11.52
2022-09-20T04:16:23.489Z,11.52
2022-09-20T04:18:58.491Z,11.41
2022-09-20T04:21:37.387Z,11.47
2022-09-20T04:24:14.849Z,11.53
2022-09-20T04:26:47.015Z,11.44
2022-09-20T04:29:46.060Z,11.47
2022-09-20T04:32:29.288Z,11.51
2022-09-20T04:35:50.059Z,11.51
2022-09-20T04:38:19.007Z,11.60
2022-09-20T04:40:57.708Z,11.59
2022-09-20T04:43:51.248Z,11.58
2022-09-20T04:46:26.026Z,11.55
2022-09-20T04:49:20.829Z,11.60
2022-09-20T04:52:04.108Z,11.52
2022-09-20T04:55:10.369Z,11.59
2022-09-20T04:58:16.306Z,11.54
2022-09-20T05:00:56.047Z,11.55
2022-09-20T05:04:00.281Z,11.46
2022-09-20T05:06:43.914Z,11.45
2022-09-20T05:09:36.530Z,11.56
2022-09-20T05:12:44.795Z,11.71
2022-09-20T05:15:16.700Z,11.70
2022-09-20T05:18:01.875Z,11.76
2022-09-20T05:20:47.242Z,11.87
2022-09-20T05:23:13.962Z,11.75
2022-09-20T05:26:13.109Z,11.82
2022-09-20T05:28:58.591Z,11.73
2022-09-20T05:31:40.398Z,11.64
2022-09-20T05:34:29.249Z,11.59
2022-09-20T05:37:02.053Z,11.54
2022-09-20T05:39:38.891Z,11.63
2022-09-20T05:42:18.411Z,11.57
2022-09-20T05:45:04.400Z,11.47
2022-09-20T05:48:01.872Z,11.44
2022-09-20T05:50:55.814Z,11.41
2022-09-20T05:53:45.671Z,11.43
2022-09-20T05:56:27.276Z,11.44
2022-09-20T05:58:59.840Z,11.41
2022-09-20T06:01:31.656Z,11.33
2022-09-20T06:04:05.760Z,11.34
2022-09-20T06:07:02.454Z,11.40
2022-09-20T06:09:52.410Z,11.33
2022-09-20T06:12:31.393Z,11.20
2022-09-20T06:15:19.826Z,11.21
2022-09-20T06:18:20.995Z,11.17
2022-09-20T06:20:56.906Z,11.32
2022-09-20T06:23:23.747Z,11.33
2022-09-20T06:25:57.275Z,11.42
2022-09-20T06:28:58.264Z,11.49
2022-09-20T06:31:26.404Z,11.43
2022-09-20T06:34:04.265Z,11.41
2022-09-20T06:36:55.173Z,11.44
2022-09-20T06:39:49.060Z,11.40
2022-09-20T06:42:15.847Z,11.42
2022-09-20T06:44:43.381Z,11.47
2022-09-20T06:47:11.059Z,11.59
2022-09-20T06:49:37.862Z,11.58
2022-09-20T06:52:05.752Z,11.58
2022-09-20T06:54:32.989Z,11.60
2022-09-20T06:57:03.307Z,11.65
2022-09-20T06:59:30.027Z,11.65
2022-09-20T07:01:57.194Z,11.63
2022-09-20T07:04:24.931Z,11.61
2022-09-20T07:06:51.669Z,11.64
2022-09-20T07:09:18.434Z,11.76
2022-09-20T07:11:46.205Z,11.78
2022-09-20T07:14:12.951Z,11.89
2022-09-20T07:16:40.111Z,11.99
2022-09-20T07:19:06.903Z,12.05
2022-09-20T07:21:33.594Z,12.12
2022-09-20T07:24:00.469Z,12.10
2022-09-20T07:26:29.329Z,12.17
2022-09-20T07:28:57.487Z,12.18
2022-09-20T07:31:26.639Z,12.25
2022-09-20T07:33:53.756Z,12.35
2022-09-20T07:36:20.583Z,12.21
2022-09-20T07:38:50.168Z,12.19
2022-09-20T07:41:19.097Z,12.18
2022-09-20T07:43:46.598Z,12.26
2022-09-20T07:46:16.210Z,12.34
2022-09-20T07:48:42.995Z,12.43
2022-09-20T07:51:12.794Z,12.60
2022-09-20T07:53:40.143Z,12.54
2022-09-20T07:56:11.609Z,12.57
2022-09-20T07:58:38.751Z,12.65
2022-09-20T08:01:10.794Z,12.70
2022-09-20T08:03:37.908Z,12.99
2022-09-20T08:06:07.276Z,13.00
2022-09-20T08:08:38.553Z,12.81
2022-09-20T08:11:08.027Z,13.05
2022-09-20T08:16:27.222Z,12.91
2022-09-20T08:19:00.280Z,12.88
2022-09-20T08:21:34.841Z,12.92
2022-09-20T08:24:01.864Z,13.08
2022-09-20T08:26:31.181Z,12.97
2022-09-20T08:29:00.127Z,12.97
2022-09-20T08:31:34.450Z,13.02
2022-09-20T08:34:04.996Z,12.94
2022-09-20T08:36:36.792Z,12.99
2022-09-20T08:41:56.809Z,13.01
2022-09-20T08:44:34.755Z,13.32
2022-09-20T08:47:17.687Z,13.13
2022-09-20T08:49:46.080Z,13.11
2022-09-20T08:52:19.162Z,13.05
2022-09-20T08:54:46.179Z,13.03
2022-09-20T08:57:16.065Z,13.03
2022-09-20T08:59:42.968Z,12.97
2022-09-20T09:02:19.010Z,13.11
2022-09-20T09:04:46.500Z,13.04
2022-09-20T09:07:15.189Z,13.11
2022-09-20T09:09:46.702Z,13.11
2022-09-20T09:12:26.478Z,13.14
2022-09-20T09:14:57.309Z,13.22
2022-09-20T09:17:27.906Z,13.20
2022-09-20T09:19:56.825Z,13.25
2022-09-20T09:22:36.891Z,13.19
2022-09-20T09:25:42.069Z,13.23
2022-09-20T09:28:08.774Z,13.38
2022-09-20T09:30:37.874Z,13.32
2022-09-20T09:33:20.047Z,13.32
2022-09-20T09:36:05.445Z,13.37
2022-09-20T09:38:36.780Z,13.54
2022-09-20T09:41:06.041Z,13.48
2022-09-20T09:43:35.642Z,13.55
2022-09-20T09:46:21.620Z,13.66
2022-09-20T09:49:12.266Z,13.57
2022-09-20T09:51:42.457Z,13.62
2022-09-20T09:54:17.034Z,13.77
2022-09-20T09:57:01.900Z,13.82
2022-09-20T09:59:47.950Z,13.79
2022-09-20T10:02:39.352Z,13.74
2022-09-20T10:05:42.784Z,13.80
2022-09-20T10:08:30.798Z,13.92
2022-09-20T10:11:00.905Z,13.93
2022-09-20T10:13:55.654Z,14.05
2022-09-20T10:16:37.291Z,14.08
2022-09-20T10:19:22.813Z,14.19
2022-09-20T10:22:01.848Z,14.24
2022-09-20T10:24:31.465Z,14.13
2022-09-20T10:27:07.230Z,14.35
2022-09-20T10:30:00.410Z,14.54
2022-09-20T10:33:01.407Z,14.64
2022-09-20T10:35:37.452Z,14.76
2022-09-20T10:38:25.229Z,14.77
2022-09-20T10:41:10.387Z,14.81
2022-09-20T10:44:04.174Z,14.83
2022-09-20T10:46:38.154Z,14.91
2022-09-20T10:49:24.994Z,15.12
2022-09-20T10:52:08.538Z,15.06
2022-09-20T10:54:38.405Z,15.09
2022-09-20T10:57:28.585Z,15.40
2022-09-20T11:00:17.890Z,15.24
2022-09-20T11:02:50.686Z,15.24
2022-09-20T11:05:28.596Z,15.36
2022-09-20T11:08:03.765Z,15.36
2022-09-20T11:10:42.410Z,15.44
2022-09-20T11:13:27.507Z,15.60
2022-09-20T11:16:00.339Z,15.64
2022-09-20T11:18:33.610Z,15.62
2022-09-20T11:21:08.931Z,15.74
2022-09-20T11:24:06.699Z,15.86
2022-09-20T11:26:40.677Z,15.80
2022-09-20T11:29:24.306Z,15.89
2022-09-20T11:31:53.285Z,15.94
2022-09-20T11:34:30.167Z,15.96
2022-09-20T11:37:01.315Z,15.87
2022-09-20T11:39:40.464Z,15.92
2022-09-20T11:42:14.513Z,15.96
2022-09-20T11:44:41.969Z,15.88
2022-09-20T11:47:42.928Z,15.91
2022-09-20T11:50:17.742Z,15.77
2022-09-20T11:53:10.977Z,15.96
2022-09-20T11:55:59.175Z,16.08
2022-09-20T11:58:27.384Z,16.33
2022-09-20T12:00:56.611Z,16.36
2022-09-20T12:03:37.492Z,16.45
2022-09-20T12:06:33.433Z,16.61
2022-09-20T12:09:16.172Z,16.60
2022-09-20T12:11:43.222Z,16.64
2022-09-20T12:14:26.300Z,16.76
2022-09-20T12:16:54.042Z,16.96
2022-09-20T12:19:33.360Z,17.27
2022-09-20T12:22:01.056Z,17.44
2022-09-20T12:24:29.403Z,17.75
2022-09-20T12:26:59.653Z,18.00
2022-09-20T12:29:35.209Z,18.33
2022-09-20T12:32:03.341Z,18.66
2022-09-20T12:34:36.140Z,18.82
2022-09-20T12:37:04.741Z,18.79
2022-09-20T12:39:36.115Z,19.06
2022-09-20T12:42:12.002Z,19.15
2022-09-20T12:45:00.421Z,19.37
2022-09-20T12:47:30.005Z,19.10
2022-09-20T12:50:17.002Z,18.99
2022-09-20T12:53:02.653Z,19.11
2022-09-20T12:55:56.599Z,18.86
2022-09-20T12:58:26.263Z,18.80
2022-09-20T13:01:14.477Z,18.67
2022-09-20T13:03:43.550Z,18.59
2022-09-20T13:06:10.205Z,18.47
2022-09-20T13:08:48.029Z,18.41
2022-09-20T13:11:21.119Z,18.56
2022-09-20T13:13:50.657Z,18.61
2022-09-20T13:16:27.534Z,18.73
2022-09-20T13:19:12.739Z,18.99
2022-09-20T13:21:41.809Z,18.78
2022-09-20T13:24:15.591Z,18.79
2022-09-20T13:26:45.768Z,18.82
2022-09-20T13:29:35.129Z,18.91
2022-09-20T13:32:27.875Z,19.22
2022-09-20T13:35:12.698Z,19.39
2022-09-20T13:37:53.185Z,19.10
2022-09-20T13:40:38.542Z,19.46
2022-09-20T13:43:23.243Z,19.23
2022-09-20T13:45:57.601Z,19.05
2022-09-20T13:48:26.490Z,19.05
2022-09-20T13:50:54.057Z,18.89
2022-09-20T13:53:40.691Z,19.11
2022-09-20T13:56:29.888Z,19.18
2022-09-20T13:58:59.038Z,19.11
2022-09-20T14:01:34.461Z,19.06
2022-09-20T14:04:13.799Z,19.22
2022-09-20T14:06:40.973Z,19.24
2022-09-20T14:09:11.304Z,19.22
2022-09-20T14:11:38.670Z,19.28
2022-09-20T14:14:05.637Z,19.44
2022-09-20T14:16:34.972Z,19.78
2022-09-20T14:19:02.898Z,19.89
2022-09-20T14:21:32.772Z,20.38
2022-09-20T14:24:04.934Z,20.45
2022-09-20T14:26:39.886Z,20.65
2022-09-20T14:29:34.588Z,20.73
2022-09-20T14:32:07.410Z,20.51
2022-09-20T14:34:38.938Z,20.40
2022-09-20T14:37:11.390Z,19.95
2022-09-20T14:39:47.970Z,20.21
2022-09-20T14:42:30.599Z,20.35
2022-09-20T14:44:57.630Z,20.09
2022-09-20T14:47:38.702Z,20.03
2022-09-20T14:50:24.193Z,20.71
2022-09-20T14:53:11.255Z,20.89
2022-09-20T14:56:10.159Z,21.51
2022-09-20T14:59:11.027Z,22.31
2022-09-20T15:01:41.158Z,22.51
2022-09-20T15:04:23.053Z,23.55
2022-09-20T15:06:51.280Z,24.33
2022-09-20T15:09:18.976Z,24.44
2022-09-20T15:11:45.721Z,24.73
2022-09-20T15:14:12.508Z,26.01
2022-09-20T15:16:39.374Z,25.43
2022-09-20T15:19:08.094Z,25.68
2022-09-20T15:21:34.965Z,25.18
2022-09-20T15:24:01.970Z,26.13
2022-09-20T15:26:29.405Z,25.79
2022-09-20T15:28:56.215Z,24.91
2022-09-20T15:31:23.176Z,25.95
2022-09-20T15:33:50.044Z,26.86
2022-09-20T15:36:17.218Z,26.70
2022-09-20T15:38:44.037Z,26.90
2022-09-20T15:41:10.801Z,26.97
2022-09-20T15:43:37.699Z,27.16
2022-09-20T15:46:19.776Z,27.07
2022-09-20T15:48:46.865Z,26.72
2022-09-20T15:51:15.231Z,26.62
2022-09-20T15:53:48.693Z,27.50
2022-09-20T15:56:18.050Z,26.55
2022-09-20T16:11:58.862Z,24.96
2022-09-20T16:14:25.913Z,23.73
2022-09-20T16:16:52.660Z,23.10
2022-09-20T16:19:23.754Z,22.34
2022-09-20T16:21:58.215Z,21.71
2022-09-20T16:24:27.872Z,21.55
2022-09-20T16:26:54.868Z,21.45
2022-09-20T16:29:25.925Z,21.04
2022-09-20T16:31:54.062Z,20.63
2022-09-20T16:34:32.520Z,20.56
2022-09-20T16:37:08.878Z,20.43
2022-09-20T16:39:35.739Z,20.18
2022-09-20T16:42:04.870Z,20.09
2022-09-20T16:44:36.608Z,20.03
2022-09-20T16:47:08.870Z,19.90
2022-09-20T16:49:36.481Z,19.79
2022-09-20T16:52:07.062Z,19.65
2022-09-20T16:54:34.130Z,19.55
2022-09-20T16:57:01.314Z,19.60
2022-09-20T16:59:28.349Z,19.55
2022-09-20T17:01:55.141Z,19.42
2022-09-20T17:04:22.056Z,19.30
2022-09-20T17:06:49.591Z,19.18
2022-09-20T17:09:16.690Z,19.24
2022-09-20T17:11:49.330Z,18.99
2022-09-20T17:14:18.598Z,19.18
2022-09-20T17:16:49.484Z,18.84
2022-09-20T17:19:19.924Z,18.84
2022-09-20T17:21:50.200Z,18.70
2022-09-20T17:24:19.712Z,18.55
2022-09-20T17:26:46.519Z,18.45
2022-09-20T17:29:16.206Z,18.37
2022-09-20T17:31:48.804Z,18.28
2022-09-20T17:34:21.567Z,18.26
2022-09-20T17:36:49.226Z,18.14
2022-09-20T17:39:16.637Z,17.98
2022-09-20T17:41:48.017Z,17.92
2022-09-20T17:44:15.664Z,17.89
2022-09-20T17:46:46.820Z,17.92
2022-09-20T17:49:16.779Z,17.82
2022-09-20T17:51:54.860Z,17.88
2022-09-20T17:54:23.261Z,17.79
2022-09-20T17:56:51.799Z,17.76
2022-09-20T17:59:19.495Z,17.77
2022-09-20T18:01:48.283Z,17.67
2022-09-20T18:04:15.924Z,17.63
2022-09-20T18:06:48.075Z,17.59
2022-09-20T18:09:16.596Z,17.54
2022-09-20T18:11:49.710Z,17.55
2022-09-20T18:14:23.217Z,17.50
2022-09-20T18:17:00.042Z,17.42
2022-09-20T18:19:33.877Z,17.38
2022-09-20T18:22:04.288Z,17.30
2022-09-20T18:24:31.635Z,17.26
2022-09-20T18:27:00.646Z,17.23
2022-09-20T18:29:28.727Z,17.19
2022-09-20T18:31:55.669Z,17.18
2022-09-20T18:34:31.241Z,17.03
2022-09-20T18:36:59.145Z,17.12
2022-09-20T18:39:27.954Z,17.10
2022-09-20T18:41:55.342Z,17.15
2022-09-20T18:44:22.874Z,17.18
2022-09-20T18:46:53.087Z,17.05
2022-09-20T18:49:21.540Z,16.89
2022-09-20T18:51:49.338Z,16.92
2022-09-20T18:54:16.730Z,16.86
2022-09-20T18:56:48.141Z,16.84
2022-09-20T18:59:20.337Z,16.92
2022-09-20T19:01:50.075Z,16.86
2022-09-20T19:04:58.519Z,16.85
2022-09-20T19:07:28.099Z,16.73
2022-09-20T19:10:06.866Z,16.87
2022-09-20T19:12:48.785Z,16.80
2022-09-20T19:15:22.702Z,16.64
2022-09-20T19:17:54.307Z,16.63
2022-09-20T19:20:34.029Z,16.76
2022-09-20T19:23:19.793Z,16.77
2022-09-20T19:25:47.540Z,16.71
2022-09-20T19:28:15.906Z,16.89
2022-09-20T19:30:43.105Z,16.55
2022-09-20T19:33:16.429Z,16.68
2022-09-20T19:35:49.489Z,16.70
2022-09-20T19:38:41.408Z,16.47
2022-09-20T19:41:30.559Z,16.39
2022-09-20T19:44:21.956Z,16.49
2022-09-20T19:47:20.035Z,16.51
2022-09-20T19:49:56.983Z,16.37
2022-09-20T19:52:24.262Z,16.41
2022-09-20T19:54:52.013Z,16.35
2022-09-20T19:57:21.857Z,16.25
2022-09-20T19:59:49.731Z,16.36
2022-09-20T20:02:17.550Z,16.30
2022-09-20T20:04:44.831Z,16.29
2022-09-20T20:07:40.889Z,16.29
2022-09-20T20:10:32.100Z,16.21
2022-09-20T20:13:37.587Z,16.30
2022-09-20T20:16:12.377Z,16.18
2022-09-20T20:18:39.074Z,15.95
2022-09-20T20:21:18.203Z,16.01
2022-09-20T20:24:05.002Z,16.08
2022-09-20T20:26:31.974Z,16.06
2022-09-20T20:28:58.674Z,16.08
2022-09-20T20:31:25.492Z,16.00
2022-09-20T20:33:52.611Z,16.02
2022-09-20T20:36:19.355Z,15.98
2022-09-20T20:38:49.969Z,15.95
2022-09-20T20:41:21.760Z,15.94
2022-09-20T20:43:53.287Z,15.89
2022-09-20T20:46:20.136Z,15.75
2022-09-20T20:48:50.202Z,15.55
2022-09-20T20:51:19.079Z,15.50
2022-09-20T20:53:48.128Z,15.48
2022-09-20T20:56:17.859Z,15.54
2022-09-20T20:58:45.762Z,15.70
2022-09-20T21:01:21.316Z,15.31
2022-09-20T21:03:52.571Z,15.11
2022-09-20T21:06:20.521Z,15.36
2022-09-20T21:08:49.801Z,15.44
2022-09-20T21:11:25.316Z,15.46
2022-09-20T21:13:53.037Z,15.44
2022-09-20T21:16:22.914Z,15.29
2022-09-20T21:18:51.001Z,15.20
2022-09-20T21:21:22.655Z,15.25
2022-09-20T21:23:51.914Z,15.22
2022-09-20T21:26:19.562Z,14.97
2022-09-20T21:28:51.462Z,14.79
2022-09-20T21:31:19.247Z,14.85
2022-09-20T21:33:46.051Z,14.66
2022-09-20T21:36:14.648Z,14.57
2022-09-20T21:38:42.440Z,14.41
2022-09-20T21:41:09.138Z,14.27
2022-09-20T21:43:36.418Z,14.08
2022-09-20T21:46:04.042Z,14.08
2022-09-20T21:48:30.895Z,14.14
2022-09-20T21:51:02.549Z,13.99
2022-09-20T21:53:29.860Z,14.08
2022-09-20T21:56:00.598Z,14.15
2022-09-20T21:58:28.051Z,14.11
2022-09-20T22:01:04.448Z,14.01
2022-09-20T22:03:32.138Z,13.91
2022-09-20T22:06:08.748Z,13.88
2022-09-20T22:08:42.219Z,13.76
2022-09-20T22:11:15.047Z,13.63
2022-09-20T22:13:50.028Z,13.67
2022-09-20T22:16:20.897Z,13.48
2022-09-20T22:18:49.867Z,13.58
2022-09-20T22:21:19.247Z,13.78
2022-09-20T22:23:52.196Z,13.82
2022-09-20T22:26:21.789Z,13.87
2022-09-20T22:28:51.950Z,13.99
2022-09-20T22:31:23.920Z,13.77
2022-09-20T22:33:55.623Z,13.55
2022-09-20T22:36:27.423Z,13.47
2022-09-20T22:38:54.692Z,13.42
2022-09-20T22:41:21.915Z,13.57
2022-09-20T22:43:49.022Z,13.53
2022-09-20T22:46:18.440Z,13.46
2022-09-20T22:48:45.635Z,13.32
2022-09-20T22:51:15.135Z,13.18
2022-09-20T22:53:42.264Z,13.36
2022-09-20T22:56:12.163Z,13.41
2022-09-20T22:58:44.361Z,13.53
2022-09-20T23:01:15.340Z,13.38
2022-09-20T23:03:43.017Z,13.59
2022-09-20T23:06:14.239Z,13.54
2022-09-20T23:08:41.482Z,13.41
2022-09-20T23:11:08.883Z,13.55
2022-09-20T23:13:36.588Z,13.60
2022-09-20T23:16:20.246Z,13.76
2022-09-20T23:18:48.134Z,13.81
2022-09-20T23:21:15.284Z,13.78
2022-09-20T23:23:45.266Z,13.65
2022-09-20T23:26:18.856Z,13.69
2022-09-20T23:28:51.715Z,13.53
2022-09-20T23:31:19.005Z,13.48
2022-09-20T23:33:53.638Z,13.26
2022-09-20T23:36:21.083Z,13.28
2022-09-20T23:38:48.481Z,13.28
2022-09-20T23:41:18.320Z,13.23
2022-09-20T23:43:45.349Z,13.15
2022-09-20T23:46:13.839Z,13.25
2022-09-20T23:48:44.391Z,13.49
2022-09-20T23:51:13.411Z,13.52
2022-09-20T23:53:40.542Z,13.50
2022-09-20T23:56:07.663Z,13.37
2022-09-20T23:58:36.508Z,13.47
